メインページ
METAR-TAF:

METAR-TAF

空港 :

イスタンブル-アタテュルク, トルコ

アタテュルク国際空港

緯度: 40-58N, 経度: 028-49E, 海抜: 48m

現時点の気象観測

当レポートは46分前の22:50(UTC)に作成
北/北西の風 12kt
気温 10°C
湿度 82%
気圧 1020 hPa
視程10km以上
高度1500ftの雲はほとんどない
高度3000ftの雲は散在している
高度7000ftの千切れ雲あり
弱いにわか雨

METAR: LTBA 232250Z 33012KT 9999 -SHRA FEW015 SCT030 BKN070 10/07 Q1020 NOSIG RMK RWY17L 34014KT RWY05 31010KT RWY23 34011KT

時間: 02:36 (23:36 UTC)

予報

当レポートは6時間56分前の16:40(UTC)に作成
予報は23日の 18時(UTC)から 24日の 24時(UTC)まで有効
西/南西の風 12kt
視程10km以上
高度3300ftの雲は散在している
23日の 18時(UTC)から 23日の 21時(UTC)まで一時的に
高度2500ftの雲はほとんどない, 積乱雲.
高度2800ftの千切れ雲あり
弱いにわか雨
確率 40%
23日の 21時(UTC)から 23日の 24時(UTC)まで
高度2500ftの雲はほとんどない, 積乱雲.
高度2800ftの千切れ雲あり
激しい雷雨, 小雨
23日の 22時(UTC)から 24日の 01時(UTC)まで徐々に
西/北西の風 5kt
24日の 08時(UTC)から 24日の 12時(UTC)まで徐々に
南西の風 12kt
24日の 15時(UTC)から 24日の 18時(UTC)まで徐々に
東/南東の風 8kt
視程10km以上
1,500メートル以下は雲なし、積乱雲なし

TAF: LTBA 231640Z 2318/2424 24012KT 9999 SCT033 TEMPO 2318/2321 -SHRA FEW025CB BKN028 PROB40 2321/2324 -TSRA FEW025CB BKN028 BECMG 2322/2401 30005KT BECMG 2408/2412 23012KT BECMG 2415/2418 11008KT CAVOK

4,000以上の空港の気象観測と天気予報(METAR報とTAF報)

利用可能な観測所は地図上に黄色い丸と赤い丸で示す。

丸の上にカーソルを重ねると観測所名を参照できる。

次にクリックすると気象観測と天気予報を参照できる。

マップの切り替え:黒色「×」印の緑ボタンをクリックして拡大、「-」印の緑ボタンをクリックして縮小、緑色の三角印をクリックして隣りの地図に切り替え


METAR-TAF: